Briefing drone pour Aurec-sur-loire

Rechercher une autre localisation

Conditions de vol :


Nous sommes le : Mardi 16 août 2022
Il est 06:38 UTC (08:38 LT)

Lever de soleil : 04:18 UTC (06:18 LT)
Coucher de soleil : 19:16 UTC (21:16 LT)

Météo

L'essentiel des conditions de vol

VIGILANCE MÉTÉO FRANCE - Haute-Loire (43)
Vigilance Jaune : Orages
CARTE TEMSI
CARTES DES FRONTS
METAR de LFMH
LFMH 160630Z AUTO 17006KT 8000 NSC 18/13 Q1010

Date d'émission: 16/08/2022
Heure d'émission: 06:30 UTC
Vent: 170° pour 6 KT (11 km/h)
Visibilité horizontale: 8000 m
Plafond : Pas de nuages significatifs (NSC)
Température: 18 °C
Point de rosée: 13 °C
Humidité: 73%
Pression (QNH): 1010 hPa
TAF de LFMH
LFMH 161901Z 1619/1712 CNL

Conditions prévues :

Heure d'émission : Bulletin éffectué le 16 à 19:00 UTC
Prévision : Valide du 16 a 19:00 UTC au 17 a 12:00 UTC
Nuages : à 0ft (0 m)
WEBCAM POUR AUREC-SUR-LOIRE

Réglementation

Voler en sécurité

CARTES AERONAUTIQUE 1/500.000
CARTE AZBA (Reseau basse altitude)
CARTES VAC (LFMH)
SUP AIP




Chargement des AIP...
NOTAM (AUREC-SUR-LOIRE + Terrain à proximité / FIR )




Chargement des NOTAMS...
CONTACT PREFECTURE 43


Avertissement : Les données mises à disposition sont indicatives. Oxygène Drone ne pourra être tenu responsable de dégâts causés aux biens et aux personnes.